createdAt,value
2023-01-17T13:51:59.016Z,10.14
2023-01-17T13:55:46.162Z,9.83
2023-01-17T13:59:26.845Z,9.91
2023-01-17T14:02:52.614Z,9.85
2023-01-17T14:06:36.216Z,9.83
2023-01-17T14:09:58.017Z,9.77
2023-01-17T14:13:35.902Z,9.61
2023-01-17T14:17:23.635Z,9.74
2023-01-17T14:20:49.173Z,9.97
2023-01-17T14:24:10.695Z,10.38
2023-01-17T14:27:39.348Z,10.80
2023-01-17T14:31:02.563Z,10.88
2023-01-17T14:34:24.287Z,10.90
2023-01-17T14:37:51.331Z,10.84
2023-01-17T14:41:23.606Z,10.53
2023-01-17T14:44:48.096Z,10.33
2023-01-17T14:48:20.001Z,10.19
2023-01-17T14:51:41.629Z,9.83
2023-01-17T14:55:15.534Z,9.61
2023-01-17T14:58:39.392Z,9.57
2023-01-17T15:02:08.221Z,9.57
2023-01-17T15:05:30.331Z,9.44
2023-01-17T15:08:54.203Z,9.29
2023-01-17T15:12:15.919Z,9.23
2023-01-17T15:15:39.863Z,9.33
2023-01-17T15:19:04.567Z,9.27
2023-01-17T15:22:26.770Z,9.22
2023-01-17T15:25:53.453Z,9.14
2023-01-17T15:29:25.945Z,9.18
2023-01-17T15:32:48.206Z,9.01
2023-01-17T15:36:21.742Z,9.04
2023-01-17T15:39:43.328Z,8.97
2023-01-17T15:43:06.636Z,8.85
2023-01-17T15:46:33.005Z,8.92
2023-01-17T15:49:57.472Z,9.56
2023-01-17T15:53:34.051Z,10.22
2023-01-17T15:57:24.887Z,10.69
2023-01-17T16:00:51.824Z,10.90
2023-01-17T16:04:27.674Z,10.88
2023-01-17T16:08:06.178Z,10.87
2023-01-17T16:11:27.856Z,10.64
2023-01-17T16:15:10.450Z,10.31
2023-01-17T16:18:35.540Z,10.43
2023-01-17T16:21:59.041Z,10.15
2023-01-17T16:25:22.961Z,10.09
2023-01-17T16:28:44.841Z,10.19
2023-01-17T16:32:08.892Z,10.19
2023-01-17T16:35:32.988Z,10.26
2023-01-17T16:38:57.073Z,10.09
2023-01-17T16:42:18.670Z,9.83
2023-01-17T16:45:48.556Z,9.42
2023-01-17T16:49:10.288Z,9.12
2023-01-17T16:52:34.714Z,8.97
2023-01-17T16:56:05.207Z,8.68
2023-01-17T16:59:34.565Z,9.01
2023-01-17T17:03:04.042Z,9.02
2023-01-17T17:06:32.525Z,8.74
2023-01-17T17:09:54.081Z,8.59
2023-01-17T17:13:15.707Z,8.37
2023-01-17T17:16:37.351Z,8.14
2023-01-17T17:20:01.312Z,8.05
2023-01-17T17:23:27.662Z,8.02
2023-01-17T17:26:49.271Z,7.86
2023-01-17T17:30:13.849Z,7.79
2023-01-17T17:33:36.894Z,7.78
2023-01-17T17:36:58.477Z,7.81
2023-01-17T17:40:22.306Z,7.67
2023-01-17T17:43:46.296Z,7.58
2023-01-17T17:47:09.197Z,7.65
2023-01-17T17:50:33.125Z,7.63
2023-01-17T17:53:56.767Z,7.71
2023-01-17T17:57:18.346Z,8.19
2023-01-17T18:00:40.257Z,8.54
2023-01-17T18:04:07.454Z,8.82
2023-01-17T18:07:32.660Z,8.85
2023-01-17T18:10:58.462Z,9.12
2023-01-17T18:14:24.091Z,8.87
2023-01-17T18:17:46.383Z,8.51
2023-01-17T18:21:28.313Z,8.14
2023-01-17T18:24:54.666Z,8.17
2023-01-17T18:28:24.666Z,7.91
2023-01-17T18:36:23.734Z,7.85
2023-01-17T18:44:26.024Z,7.96
2023-01-17T18:47:49.842Z,7.78
2023-01-17T18:51:13.787Z,7.72
2023-01-17T18:54:37.817Z,7.74
2023-01-17T18:57:59.637Z,7.58
2023-01-17T19:01:24.236Z,7.63
2023-01-17T19:04:45.952Z,7.51
2023-01-17T19:08:09.534Z,7.60
2023-01-17T19:11:31.285Z,7.61
2023-01-17T19:14:52.872Z,7.54
2023-01-17T19:18:14.494Z,7.20
2023-01-17T19:21:36.213Z,7.48
2023-01-17T19:24:57.876Z,7.53
2023-01-17T19:28:22.050Z,7.55
2023-01-17T19:31:46.474Z,7.44
2023-01-17T19:35:11.148Z,7.42
2023-01-17T19:38:36.064Z,7.43
2023-01-17T19:42:00.156Z,7.40
2023-01-17T19:45:25.186Z,7.50
2023-01-17T19:48:46.795Z,7.48
2023-01-17T19:52:08.462Z,7.47
2023-01-17T19:55:30.009Z,7.46
2023-01-17T19:58:55.032Z,7.36
2023-01-17T20:02:17.254Z,7.34
2023-01-17T20:05:39.026Z,7.37
2023-01-17T20:09:04.212Z,7.23
2023-01-17T20:12:28.096Z,7.34
2023-01-17T20:15:52.626Z,7.31
2023-01-17T20:19:14.429Z,7.27
2023-01-17T20:22:36.501Z,7.40
2023-01-17T20:26:01.622Z,7.42
2023-01-17T20:29:25.288Z,7.57
2023-01-17T20:32:49.622Z,7.65
2023-01-17T20:36:14.939Z,7.23
2023-01-17T20:39:38.961Z,7.12
2023-01-17T20:43:03.575Z,6.85
2023-01-17T20:46:27.405Z,6.65
2023-01-17T20:49:51.354Z,6.59
2023-01-17T20:53:16.109Z,6.72
2023-01-17T20:56:38.374Z,7.00
2023-01-17T21:00:00.350Z,7.09
2023-01-17T21:03:28.855Z,7.05
2023-01-17T21:06:51.996Z,6.96
2023-01-17T21:10:18.310Z,6.84
2023-01-17T21:13:40.417Z,6.77
2023-01-17T21:17:04.481Z,6.82
2023-01-17T21:20:27.369Z,6.75
2023-01-17T21:23:55.681Z,6.10
2023-01-17T21:27:17.337Z,6.27
2023-01-17T21:30:38.917Z,6.33
2023-01-17T21:34:06.423Z,6.31
2023-01-17T21:37:27.968Z,6.48
2023-01-17T21:40:56.344Z,6.45
2023-01-17T21:44:25.952Z,6.16
2023-01-17T21:47:48.028Z,6.29
2023-01-17T21:51:09.735Z,6.37
2023-01-17T21:54:49.985Z,6.36
2023-01-17T21:58:34.323Z,6.42
2023-01-17T22:01:59.024Z,6.54
2023-01-17T22:05:20.934Z,6.63
2023-01-17T22:08:43.012Z,6.61
2023-01-17T22:12:04.989Z,6.44
2023-01-17T22:15:29.143Z,6.36
2023-01-17T22:18:51.720Z,5.95
2023-01-17T22:22:13.527Z,6.17
2023-01-17T22:25:36.229Z,6.24
2023-01-17T22:29:02.371Z,5.96
2023-01-17T22:32:24.143Z,5.82
2023-01-17T22:35:45.767Z,5.41
2023-01-17T22:39:07.693Z,5.40
2023-01-17T22:42:29.308Z,5.68
2023-01-17T22:45:58.877Z,5.73
2023-01-17T22:49:23.453Z,5.78
2023-01-17T22:52:50.045Z,5.89
2023-01-17T22:56:17.075Z,5.85
2023-01-17T22:59:38.616Z,5.72
2023-01-17T23:03:02.432Z,5.95
2023-01-17T23:06:31.820Z,6.02
2023-01-17T23:09:55.821Z,5.90
2023-01-17T23:13:17.453Z,5.66
2023-01-17T23:17:01.664Z,5.62
2023-01-17T23:20:23.206Z,5.65
2023-01-17T23:23:44.785Z,5.81
2023-01-17T23:27:24.743Z,5.96
2023-01-17T23:30:47.947Z,5.95
2023-01-17T23:34:12.265Z,5.92
2023-01-17T23:37:52.495Z,5.98
2023-01-17T23:41:34.281Z,5.78
2023-01-17T23:44:55.875Z,5.79
2023-01-17T23:48:17.846Z,5.99
2023-01-17T23:51:39.483Z,5.98
2023-01-17T23:55:01.045Z,6.00
2023-01-17T23:58:25.578Z,6.00
